Juneau, Alaska
Current Conditions -  °F | °C
As of 1:53 PM on Tuesday 27 Jan 2015 (Local Time) from PAJN Reporting Station
Overcast Overcast  
Wind Chill: 30°   Ceiling: 4900
Heat Index: 30°   Visibility: 10mi
Dew Point: 24°   Wind: 0mph
Humidity: 79%   Direction: NA
Pressure: 30.03"   Gusts: NA
Location:  58.37°N, 134.57°W
Report Text: PAJN 272253Z 00000KT 10SM FEW029 OVC049 M01/M04 A3003 RMK AO2 SLP170 T10111044
Loading
Personal Weather Stations






























Interactive Weather Map New forecast layout! Learn more

10-Day Weather Forecast

Advertisements
Track Severe Weather on mobile